sensor_id;sensor_type;location;lat;lon;timestamp;temperature;humidity
51595;DHT22;37677;53.254;6.594;2022-08-21T00:01:14;16.20;99.90
51595;DHT22;37677;53.254;6.594;2022-08-21T00:03:41;16.20;99.90
51595;DHT22;37677;53.254;6.594;2022-08-21T00:06:07;16.10;99.90
51595;DHT22;37677;53.254;6.594;2022-08-21T00:08:33;16.10;99.90
51595;DHT22;37677;53.254;6.594;2022-08-21T00:10:59;16.00;99.90
51595;DHT22;37677;53.254;6.594;2022-08-21T00:13:24;16.00;1.00
51595;DHT22;37677;53.254;6.594;2022-08-21T00:15:51;15.90;1.00
51595;DHT22;37677;53.254;6.594;2022-08-21T00:18:17;15.90;1.00
51595;DHT22;37677;53.254;6.594;2022-08-21T00:20:43;15.90;1.00
51595;DHT22;37677;53.254;6.594;2022-08-21T00:23:10;15.80;1.00
51595;DHT22;37677;53.254;6.594;2022-08-21T00:25:36;15.80;1.00
51595;DHT22;37677;53.254;6.594;2022-08-21T00:28:03;15.80;1.00
51595;DHT22;37677;53.254;6.594;2022-08-21T00:30:29;15.70;1.00
51595;DHT22;37677;53.254;6.594;2022-08-21T00:32:56;15.70;1.00
51595;DHT22;37677;53.254;6.594;2022-08-21T00:35:26;15.70;1.00
51595;DHT22;37677;53.254;6.594;2022-08-21T00:37:52;15.70;1.00
51595;DHT22;37677;53.254;6.594;2022-08-21T00:40:24;15.60;1.00
51595;DHT22;37677;53.254;6.594;2022-08-21T00:42:50;15.60;1.00
51595;DHT22;37677;53.254;6.594;2022-08-21T00:45:16;15.60;1.00
51595;DHT22;37677;53.254;6.594;2022-08-21T00:47:42;15.60;1.00
51595;DHT22;37677;53.254;6.594;2022-08-21T00:50:09;15.60;1.00
51595;DHT22;37677;53.254;6.594;2022-08-21T00:52:36;15.50;1.00
51595;DHT22;37677;53.254;6.594;2022-08-21T00:55:05;15.50;1.00
51595;DHT22;37677;53.254;6.594;2022-08-21T00:57:38;15.50;1.00
51595;DHT22;37677;53.254;6.594;2022-08-21T01:00:07;15.50;1.00
51595;DHT22;37677;53.254;6.594;2022-08-21T01:02:34;15.50;1.00
51595;DHT22;37677;53.254;6.594;2022-08-21T01:05:00;15.50;1.00
51595;DHT22;37677;53.254;6.594;2022-08-21T01:07:25;15.50;1.00
51595;DHT22;37677;53.254;6.594;2022-08-21T01:09:51;15.50;1.00
51595;DHT22;37677;53.254;6.594;2022-08-21T01:12:18;15.40;1.00
51595;DHT22;37677;53.254;6.594;2022-08-21T01:14:44;15.40;1.00
51595;DHT22;37677;53.254;6.594;2022-08-21T01:17:13;15.40;1.00
51595;DHT22;37677;53.254;6.594;2022-08-21T01:19:39;15.40;1.00
51595;DHT22;37677;53.254;6.594;2022-08-21T01:22:05;15.40;1.00
51595;DHT22;37677;53.254;6.594;2022-08-21T01:24:31;15.40;1.00
51595;DHT22;37677;53.254;6.594;2022-08-21T01:26:58;15.40;1.00
51595;DHT22;37677;53.254;6.594;2022-08-21T01:30:23;15.40;1.00
51595;DHT22;37677;53.254;6.594;2022-08-21T01:32:50;15.40;1.00
51595;DHT22;37677;53.254;6.594;2022-08-21T01:35:18;15.30;1.00
51595;DHT22;37677;53.254;6.594;2022-08-21T01:37:45;15.70;1.00
51595;DHT22;37677;53.254;6.594;2022-08-21T01:40:12;15.40;1.00
51595;DHT22;37677;53.254;6.594;2022-08-21T01:42:38;15.40;1.00
51595;DHT22;37677;53.254;6.594;2022-08-21T01:45:06;15.40;1.00
51595;DHT22;37677;53.254;6.594;2022-08-21T01:47:32;15.50;1.00
51595;DHT22;37677;53.254;6.594;2022-08-21T01:49:58;15.50;1.00
51595;DHT22;37677;53.254;6.594;2022-08-21T01:52:24;15.50;1.00
51595;DHT22;37677;53.254;6.594;2022-08-21T01:54:50;15.70;1.00
51595;DHT22;37677;53.254;6.594;2022-08-21T01:57:16;15.60;1.00
51595;DHT22;37677;53.254;6.594;2022-08-21T01:59:41;15.60;1.00
51595;DHT22;37677;53.254;6.594;2022-08-21T02:02:07;15.60;1.00
51595;DHT22;37677;53.254;6.594;2022-08-21T02:04:33;15.60;1.00
51595;DHT22;37677;53.254;6.594;2022-08-21T02:07:00;15.60;1.00
51595;DHT22;37677;53.254;6.594;2022-08-21T02:09:26;15.60;1.00
51595;DHT22;37677;53.254;6.594;2022-08-21T02:11:52;15.60;1.00
51595;DHT22;37677;53.254;6.594;2022-08-21T02:14:19;15.70;1.00
51595;DHT22;37677;53.254;6.594;2022-08-21T02:16:45;15.90;1.00
51595;DHT22;37677;53.254;6.594;2022-08-21T02:19:13;15.60;1.00
51595;DHT22;37677;53.254;6.594;2022-08-21T02:21:39;15.50;1.00
51595;DHT22;37677;53.254;6.594;2022-08-21T02:24:05;15.60;1.00
51595;DHT22;37677;53.254;6.594;2022-08-21T02:26:31;15.50;1.00
51595;DHT22;37677;53.254;6.594;2022-08-21T02:28:56;15.50;1.00
51595;DHT22;37677;53.254;6.594;2022-08-21T02:31:22;15.50;1.00
51595;DHT22;37677;53.254;6.594;2022-08-21T02:33:48;15.50;1.00
51595;DHT22;37677;53.254;6.594;2022-08-21T02:36:14;15.50;1.00
51595;DHT22;37677;53.254;6.594;2022-08-21T02:38:41;15.50;1.00
51595;DHT22;37677;53.254;6.594;2022-08-21T02:41:15;15.80;1.00
51595;DHT22;37677;53.254;6.594;2022-08-21T02:43:42;15.60;1.00
51595;DHT22;37677;53.254;6.594;2022-08-21T02:46:09;15.60;1.00
51595;DHT22;37677;53.254;6.594;2022-08-21T02:48:36;15.60;1.00
51595;DHT22;37677;53.254;6.594;2022-08-21T02:51:09;15.60;1.00
51595;DHT22;37677;53.254;6.594;2022-08-21T02:53:36;15.70;1.00
51595;DHT22;37677;53.254;6.594;2022-08-21T02:56:04;15.60;1.00
51595;DHT22;37677;53.254;6.594;2022-08-21T02:58:33;15.70;1.00
51595;DHT22;37677;53.254;6.594;2022-08-21T03:01:00;15.70;1.00
51595;DHT22;37677;53.254;6.594;2022-08-21T03:03:27;15.70;1.00
51595;DHT22;37677;53.254;6.594;2022-08-21T03:05:52;15.70;1.00
51595;DHT22;37677;53.254;6.594;2022-08-21T03:08:19;15.70;1.00
51595;DHT22;37677;53.254;6.594;2022-08-21T03:10:48;15.80;1.00
51595;DHT22;37677;53.254;6.594;2022-08-21T03:13:15;15.80;1.00
51595;DHT22;37677;53.254;6.594;2022-08-21T03:15:41;15.80;1.00
51595;DHT22;37677;53.254;6.594;2022-08-21T03:18:07;15.80;1.00
51595;DHT22;37677;53.254;6.594;2022-08-21T03:20:35;15.90;1.00
51595;DHT22;37677;53.254;6.594;2022-08-21T03:23:02;15.90;1.00
51595;DHT22;37677;53.254;6.594;2022-08-21T03:25:29;15.90;1.00
51595;DHT22;37677;53.254;6.594;2022-08-21T03:27:59;15.90;1.00
51595;DHT22;37677;53.254;6.594;2022-08-21T03:30:25;15.90;1.00
51595;DHT22;37677;53.254;6.594;2022-08-21T03:32:50;15.90;1.00
51595;DHT22;37677;53.254;6.594;2022-08-21T03:35:17;16.00;1.00
51595;DHT22;37677;53.254;6.594;2022-08-21T03:37:43;15.90;1.00
51595;DHT22;37677;53.254;6.594;2022-08-21T03:40:10;15.90;1.00
51595;DHT22;37677;53.254;6.594;2022-08-21T03:42:37;16.00;1.00
51595;DHT22;37677;53.254;6.594;2022-08-21T03:45:03;15.90;1.00
51595;DHT22;37677;53.254;6.594;2022-08-21T03:47:29;16.00;1.00
51595;DHT22;37677;53.254;6.594;2022-08-21T03:49:54;16.00;1.00
51595;DHT22;37677;53.254;6.594;2022-08-21T03:52:20;15.90;1.00
51595;DHT22;37677;53.254;6.594;2022-08-21T03:54:46;15.90;1.00
51595;DHT22;37677;53.254;6.594;2022-08-21T03:57:12;16.00;1.00
51595;DHT22;37677;53.254;6.594;2022-08-21T03:59:38;16.00;1.00
51595;DHT22;37677;53.254;6.594;2022-08-21T04:02:06;16.00;1.00
51595;DHT22;37677;53.254;6.594;2022-08-21T04:04:32;16.00;1.00
51595;DHT22;37677;53.254;6.594;2022-08-21T04:06:59;16.00;1.00
51595;DHT22;37677;53.254;6.594;2022-08-21T04:09:25;16.00;1.00
51595;DHT22;37677;53.254;6.594;2022-08-21T04:11:51;16.00;1.00
51595;DHT22;37677;53.254;6.594;2022-08-21T04:14:17;16.30;1.00
51595;DHT22;37677;53.254;6.594;2022-08-21T04:16:43;16.00;1.00
51595;DHT22;37677;53.254;6.594;2022-08-21T04:19:10;16.20;1.00
51595;DHT22;37677;53.254;6.594;2022-08-21T04:21:37;16.00;1.00
51595;DHT22;37677;53.254;6.594;2022-08-21T04:24:04;16.00;1.00
51595;DHT22;37677;53.254;6.594;2022-08-21T04:26:30;16.10;1.00
51595;DHT22;37677;53.254;6.594;2022-08-21T04:28:57;16.10;1.00
51595;DHT22;37677;53.254;6.594;2022-08-21T04:31:24;16.00;1.00
51595;DHT22;37677;53.254;6.594;2022-08-21T04:33:50;16.10;99.90
51595;DHT22;37677;53.254;6.594;2022-08-21T04:36:16;16.10;99.90
51595;DHT22;37677;53.254;6.594;2022-08-21T04:38:42;16.10;1.00
51595;DHT22;37677;53.254;6.594;2022-08-21T04:41:09;16.10;1.00
51595;DHT22;37677;53.254;6.594;2022-08-21T04:43:34;16.10;1.00
51595;DHT22;37677;53.254;6.594;2022-08-21T04:46:00;16.10;99.90
51595;DHT22;37677;53.254;6.594;2022-08-21T04:48:26;16.20;99.90
51595;DHT22;37677;53.254;6.594;2022-08-21T04:51:27;16.20;99.90
51595;DHT22;37677;53.254;6.594;2022-08-21T04:53:49;16.20;99.90
51595;DHT22;37677;53.254;6.594;2022-08-21T04:56:25;16.20;99.90
51595;DHT22;37677;53.254;6.594;2022-08-21T04:58:57;16.20;99.90
51595;DHT22;37677;53.254;6.594;2022-08-21T05:01:25;16.20;99.90
51595;DHT22;37677;53.254;6.594;2022-08-21T05:03:55;16.20;99.90
51595;DHT22;37677;53.254;6.594;2022-08-21T05:06:23;16.20;1.00
51595;DHT22;37677;53.254;6.594;2022-08-21T05:08:51;16.30;1.00
51595;DHT22;37677;53.254;6.594;2022-08-21T05:11:18;16.30;1.00
51595;DHT22;37677;53.254;6.594;2022-08-21T05:13:45;16.30;1.00
51595;DHT22;37677;53.254;6.594;2022-08-21T05:16:11;16.30;1.00
51595;DHT22;37677;53.254;6.594;2022-08-21T05:18:37;16.30;1.00
51595;DHT22;37677;53.254;6.594;2022-08-21T05:21:03;16.40;1.00
51595;DHT22;37677;53.254;6.594;2022-08-21T05:23:29;16.40;1.00
51595;DHT22;37677;53.254;6.594;2022-08-21T05:25:55;16.40;1.00
51595;DHT22;37677;53.254;6.594;2022-08-21T05:28:21;16.50;1.00
51595;DHT22;37677;53.254;6.594;2022-08-21T05:30:47;16.50;1.00
51595;DHT22;37677;53.254;6.594;2022-08-21T05:33:13;16.50;1.00
51595;DHT22;37677;53.254;6.594;2022-08-21T05:35:39;16.50;1.00
51595;DHT22;37677;53.254;6.594;2022-08-21T05:38:05;16.60;1.00
51595;DHT22;37677;53.254;6.594;2022-08-21T05:40:32;16.60;1.00
51595;DHT22;37677;53.254;6.594;2022-08-21T05:42:58;16.70;1.00
51595;DHT22;37677;53.254;6.594;2022-08-21T05:45:28;16.80;1.00
51595;DHT22;37677;53.254;6.594;2022-08-21T05:47:53;16.90;1.00
51595;DHT22;37677;53.254;6.594;2022-08-21T05:50:20;17.00;1.00
51595;DHT22;37677;53.254;6.594;2022-08-21T05:52:45;17.10;1.00
51595;DHT22;37677;53.254;6.594;2022-08-21T05:55:11;17.20;1.00
51595;DHT22;37677;53.254;6.594;2022-08-21T05:57:37;17.40;1.00
51595;DHT22;37677;53.254;6.594;2022-08-21T06:00:07;17.60;1.00
51595;DHT22;37677;53.254;6.594;2022-08-21T06:02:35;17.70;1.00
51595;DHT22;37677;53.254;6.594;2022-08-21T06:05:01;17.90;99.90
51595;DHT22;37677;53.254;6.594;2022-08-21T06:07:27;18.10;99.90
51595;DHT22;37677;53.254;6.594;2022-08-21T06:09:52;18.30;99.90
51595;DHT22;37677;53.254;6.594;2022-08-21T06:12:18;18.50;99.90
51595;DHT22;37677;53.254;6.594;2022-08-21T06:14:44;18.70;1.00
51595;DHT22;37677;53.254;6.594;2022-08-21T06:17:11;18.80;1.00
51595;DHT22;37677;53.254;6.594;2022-08-21T06:19:38;18.90;99.90
51595;DHT22;37677;53.254;6.594;2022-08-21T06:22:04;19.00;99.90
51595;DHT22;37677;53.254;6.594;2022-08-21T06:24:31;18.90;99.90
51595;DHT22;37677;53.254;6.594;2022-08-21T06:26:57;19.10;99.90
51595;DHT22;37677;53.254;6.594;2022-08-21T06:29:23;19.20;99.90
51595;DHT22;37677;53.254;6.594;2022-08-21T06:31:51;19.30;1.00
51595;DHT22;37677;53.254;6.594;2022-08-21T06:34:17;19.30;1.00
51595;DHT22;37677;53.254;6.594;2022-08-21T06:36:43;19.20;1.00
51595;DHT22;37677;53.254;6.594;2022-08-21T06:39:09;19.10;99.90
51595;DHT22;37677;53.254;6.594;2022-08-21T06:41:35;19.00;1.00
51595;DHT22;37677;53.254;6.594;2022-08-21T06:44:01;19.20;1.00
51595;DHT22;37677;53.254;6.594;2022-08-21T06:46:29;19.20;1.00
51595;DHT22;37677;53.254;6.594;2022-08-21T06:48:55;19.30;99.90
51595;DHT22;37677;53.254;6.594;2022-08-21T06:51:21;19.30;99.90
51595;DHT22;37677;53.254;6.594;2022-08-21T06:53:48;19.30;95.10
51595;DHT22;37677;53.254;6.594;2022-08-21T06:56:14;19.30;56.40
51595;DHT22;37677;53.254;6.594;2022-08-21T06:58:39;19.40;12.60
51595;DHT22;37677;53.254;6.594;2022-08-21T07:01:05;19.40;1.00
51595;DHT22;37677;53.254;6.594;2022-08-21T07:03:37;19.50;1.00
51595;DHT22;37677;53.254;6.594;2022-08-21T07:06:05;19.50;1.00
51595;DHT22;37677;53.254;6.594;2022-08-21T07:08:31;19.60;99.90
51595;DHT22;37677;53.254;6.594;2022-08-21T07:10:59;19.70;99.90
51595;DHT22;37677;53.254;6.594;2022-08-21T07:13:25;19.80;1.00
51595;DHT22;37677;53.254;6.594;2022-08-21T07:15:51;19.80;1.00
51595;DHT22;37677;53.254;6.594;2022-08-21T07:18:17;19.90;99.90
51595;DHT22;37677;53.254;6.594;2022-08-21T07:20:43;20.00;99.90
51595;DHT22;37677;53.254;6.594;2022-08-21T07:23:14;20.10;99.90
51595;DHT22;37677;53.254;6.594;2022-08-21T07:25:41;20.00;99.90
51595;DHT22;37677;53.254;6.594;2022-08-21T07:28:07;20.10;99.90
51595;DHT22;37677;53.254;6.594;2022-08-21T07:30:33;20.20;99.90
51595;DHT22;37677;53.254;6.594;2022-08-21T07:32:59;20.30;99.90
51595;DHT22;37677;53.254;6.594;2022-08-21T07:35:24;20.40;1.00
51595;DHT22;37677;53.254;6.594;2022-08-21T07:37:50;20.40;99.90
51595;DHT22;37677;53.254;6.594;2022-08-21T07:40:16;20.50;99.90
51595;DHT22;37677;53.254;6.594;2022-08-21T07:42:44;20.60;99.90
51595;DHT22;37677;53.254;6.594;2022-08-21T07:45:10;20.60;99.90
51595;DHT22;37677;53.254;6.594;2022-08-21T07:47:36;20.70;81.40
51595;DHT22;37677;53.254;6.594;2022-08-21T07:50:04;20.80;1.00
51595;DHT22;37677;53.254;6.594;2022-08-21T07:52:31;20.90;1.00
51595;DHT22;37677;53.254;6.594;2022-08-21T07:54:58;20.90;99.90
51595;DHT22;37677;53.254;6.594;2022-08-21T07:57:24;20.90;99.90
51595;DHT22;37677;53.254;6.594;2022-08-21T07:59:49;21.00;99.90
51595;DHT22;37677;53.254;6.594;2022-08-21T08:02:23;21.10;99.90
51595;DHT22;37677;53.254;6.594;2022-08-21T08:04:49;21.20;99.90
51595;DHT22;37677;53.254;6.594;2022-08-21T08:07:15;21.20;99.90
51595;DHT22;37677;53.254;6.594;2022-08-21T08:09:41;21.20;99.90
51595;DHT22;37677;53.254;6.594;2022-08-21T08:12:07;21.30;99.90
51595;DHT22;37677;53.254;6.594;2022-08-21T08:14:33;21.20;23.50
51595;DHT22;37677;53.254;6.594;2022-08-21T08:16:59;21.30;1.00
51595;DHT22;37677;53.254;6.594;2022-08-21T08:19:24;21.20;1.00
51595;DHT22;37677;53.254;6.594;2022-08-21T08:21:50;21.20;1.00
51595;DHT22;37677;53.254;6.594;2022-08-21T08:24:16;21.20;1.00
51595;DHT22;37677;53.254;6.594;2022-08-21T08:26:42;21.20;1.00
51595;DHT22;37677;53.254;6.594;2022-08-21T08:29:07;21.20;1.00
51595;DHT22;37677;53.254;6.594;2022-08-21T08:31:33;21.50;52.60
51595;DHT22;37677;53.254;6.594;2022-08-21T08:33:59;21.50;19.80
51595;DHT22;37677;53.254;6.594;2022-08-21T08:36:33;21.60;1.00
51595;DHT22;37677;53.254;6.594;2022-08-21T08:39:00;21.60;1.00
51595;DHT22;37677;53.254;6.594;2022-08-21T08:41:28;21.50;1.00
51595;DHT22;37677;53.254;6.594;2022-08-21T08:43:59;21.60;1.00
51595;DHT22;37677;53.254;6.594;2022-08-21T08:46:40;21.80;35.20
51595;DHT22;37677;53.254;6.594;2022-08-21T08:49:15;22.00;8.90
51595;DHT22;37677;53.254;6.594;2022-08-21T08:54:38;22.00;1.00
51595;DHT22;37677;53.254;6.594;2022-08-21T08:57:15;22.00;5.10
51595;DHT22;37677;53.254;6.594;2022-08-21T08:59:47;22.10;1.00
51595;DHT22;37677;53.254;6.594;2022-08-21T09:02:15;22.20;1.00
51595;DHT22;37677;53.254;6.594;2022-08-21T09:04:44;22.30;1.00
51595;DHT22;37677;53.254;6.594;2022-08-21T09:07:45;22.40;1.00
51595;DHT22;37677;53.254;6.594;2022-08-21T09:21:47;22.60;1.00
51595;DHT22;37677;53.254;6.594;2022-08-21T09:24:22;22.70;1.00
51595;DHT22;37677;53.254;6.594;2022-08-21T09:27:03;22.80;1.00
51595;DHT22;37677;53.254;6.594;2022-08-21T09:29:33;22.90;1.00
51595;DHT22;37677;53.254;6.594;2022-08-21T09:32:00;22.90;1.00
51595;DHT22;37677;53.254;6.594;2022-08-21T09:43:18;23.40;99.90
51595;DHT22;37677;53.254;6.594;2022-08-21T09:45:45;23.60;99.90
51595;DHT22;37677;53.254;6.594;2022-08-21T09:48:17;23.60;99.90
51595;DHT22;37677;53.254;6.594;2022-08-21T09:50:44;24.00;99.90
51595;DHT22;37677;53.254;6.594;2022-08-21T09:53:24;24.10;99.90
51595;DHT22;37677;53.254;6.594;2022-08-21T09:56:14;24.30;94.20
51595;DHT22;37677;53.254;6.594;2022-08-21T09:58:59;25.00;66.20
51595;DHT22;37677;53.254;6.594;2022-08-21T10:01:25;25.50;1.00
51595;DHT22;37677;53.254;6.594;2022-08-21T10:04:07;25.90;1.00
51595;DHT22;37677;53.254;6.594;2022-08-21T10:06:33;26.20;99.90
51595;DHT22;37677;53.254;6.594;2022-08-21T10:09:11;26.50;99.90
51595;DHT22;37677;53.254;6.594;2022-08-21T10:11:38;26.70;99.90
51595;DHT22;37677;53.254;6.594;2022-08-21T10:14:37;26.90;99.90
51595;DHT22;37677;53.254;6.594;2022-08-21T10:17:06;27.00;99.90
51595;DHT22;37677;53.254;6.594;2022-08-21T10:22:20;26.70;1.00
51595;DHT22;37677;53.254;6.594;2022-08-21T10:28:06;26.40;1.00
51595;DHT22;37677;53.254;6.594;2022-08-21T10:31:11;26.70;1.00
51595;DHT22;37677;53.254;6.594;2022-08-21T10:33:49;26.90;1.00
51595;DHT22;37677;53.254;6.594;2022-08-21T10:36:25;27.10;1.00
51595;DHT22;37677;53.254;6.594;2022-08-21T10:38:59;26.90;1.00
51595;DHT22;37677;53.254;6.594;2022-08-21T10:45:05;25.70;1.00
51595;DHT22;37677;53.254;6.594;2022-08-21T10:47:41;24.90;1.00
51595;DHT22;37677;53.254;6.594;2022-08-21T10:50:57;24.50;1.00
51595;DHT22;37677;53.254;6.594;2022-08-21T10:56:19;23.90;1.00
51595;DHT22;37677;53.254;6.594;2022-08-21T10:59:31;23.50;1.00
51595;DHT22;37677;53.254;6.594;2022-08-21T11:05:14;23.20;1.00
51595;DHT22;37677;53.254;6.594;2022-08-21T11:07:52;23.30;1.00
51595;DHT22;37677;53.254;6.594;2022-08-21T11:10:48;23.20;1.00
51595;DHT22;37677;53.254;6.594;2022-08-21T11:18:39;25.50;12.20
51595;DHT22;37677;53.254;6.594;2022-08-21T11:21:37;26.50;1.00
51595;DHT22;37677;53.254;6.594;2022-08-21T11:26:35;27.30;1.00
51595;DHT22;37677;53.254;6.594;2022-08-21T11:29:13;27.60;1.00
51595;DHT22;37677;53.254;6.594;2022-08-21T11:37:06;27.30;1.00
51595;DHT22;37677;53.254;6.594;2022-08-21T11:42:29;26.20;99.90
51595;DHT22;37677;53.254;6.594;2022-08-21T11:47:49;25.10;1.00
51595;DHT22;37677;53.254;6.594;2022-08-21T11:50:22;24.70;1.00
51595;DHT22;37677;53.254;6.594;2022-08-21T11:53:01;24.50;1.00
51595;DHT22;37677;53.254;6.594;2022-08-21T11:55:50;24.30;1.00
51595;DHT22;37677;53.254;6.594;2022-08-21T12:01:03;24.00;1.00
51595;DHT22;37677;53.254;6.594;2022-08-21T12:03:34;23.70;1.00
51595;DHT22;37677;53.254;6.594;2022-08-21T12:06:10;23.60;1.00
51595;DHT22;37677;53.254;6.594;2022-08-21T12:08:42;23.30;1.00
51595;DHT22;37677;53.254;6.594;2022-08-21T12:13:59;23.20;1.00
51595;DHT22;37677;53.254;6.594;2022-08-21T12:24:48;23.60;1.00
51595;DHT22;37677;53.254;6.594;2022-08-21T12:27:53;23.50;1.00
51595;DHT22;37677;53.254;6.594;2022-08-21T12:32:58;23.20;1.00
51595;DHT22;37677;53.254;6.594;2022-08-21T12:35:37;23.20;1.00
51595;DHT22;37677;53.254;6.594;2022-08-21T12:38:26;23.50;1.00
51595;DHT22;37677;53.254;6.594;2022-08-21T12:41:18;23.80;1.00
51595;DHT22;37677;53.254;6.594;2022-08-21T12:44:08;24.00;1.00
51595;DHT22;37677;53.254;6.594;2022-08-21T12:46:51;24.10;1.00
51595;DHT22;37677;53.254;6.594;2022-08-21T12:49:28;24.10;1.00
51595;DHT22;37677;53.254;6.594;2022-08-21T12:52:01;23.90;1.00
51595;DHT22;37677;53.254;6.594;2022-08-21T12:54:31;23.90;1.00
51595;DHT22;37677;53.254;6.594;2022-08-21T12:57:03;23.90;1.00
51595;DHT22;37677;53.254;6.594;2022-08-21T12:59:29;24.10;1.00
51595;DHT22;37677;53.254;6.594;2022-08-21T13:01:58;24.10;1.00
51595;DHT22;37677;53.254;6.594;2022-08-21T13:04:35;24.00;1.00
51595;DHT22;37677;53.254;6.594;2022-08-21T13:07:06;23.90;99.90
51595;DHT22;37677;53.254;6.594;2022-08-21T13:09:38;23.70;99.90
51595;DHT22;37677;53.254;6.594;2022-08-21T13:12:07;23.60;1.00
51595;DHT22;37677;53.254;6.594;2022-08-21T13:14:42;23.50;1.00
51595;DHT22;37677;53.254;6.594;2022-08-21T13:17:10;23.50;1.00
51595;DHT22;37677;53.254;6.594;2022-08-21T13:19:37;23.70;1.00
51595;DHT22;37677;53.254;6.594;2022-08-21T13:22:03;24.00;1.00
51595;DHT22;37677;53.254;6.594;2022-08-21T13:24:35;24.40;1.00
51595;DHT22;37677;53.254;6.594;2022-08-21T13:27:19;24.60;1.00
51595;DHT22;37677;53.254;6.594;2022-08-21T13:29:46;24.50;1.00
51595;DHT22;37677;53.254;6.594;2022-08-21T13:32:22;24.30;1.00
51595;DHT22;37677;53.254;6.594;2022-08-21T13:34:49;24.00;1.00
51595;DHT22;37677;53.254;6.594;2022-08-21T13:37:15;23.70;1.00
51595;DHT22;37677;53.254;6.594;2022-08-21T13:39:41;23.60;1.00
51595;DHT22;37677;53.254;6.594;2022-08-21T13:42:10;23.50;1.00
51595;DHT22;37677;53.254;6.594;2022-08-21T13:44:42;23.40;1.00
51595;DHT22;37677;53.254;6.594;2022-08-21T13:47:12;23.30;1.00
51595;DHT22;37677;53.254;6.594;2022-08-21T13:49:50;23.30;1.00
51595;DHT22;37677;53.254;6.594;2022-08-21T13:52:23;23.20;1.00
51595;DHT22;37677;53.254;6.594;2022-08-21T13:54:58;23.30;1.00
51595;DHT22;37677;53.254;6.594;2022-08-21T13:57:27;23.20;1.00
51595;DHT22;37677;53.254;6.594;2022-08-21T13:59:53;23.20;1.00
51595;DHT22;37677;53.254;6.594;2022-08-21T14:02:42;23.10;1.00
51595;DHT22;37677;53.254;6.594;2022-08-21T14:05:22;23.00;1.00
51595;DHT22;37677;53.254;6.594;2022-08-21T14:07:51;23.00;1.00
51595;DHT22;37677;53.254;6.594;2022-08-21T14:10:22;22.90;1.00
51595;DHT22;37677;53.254;6.594;2022-08-21T14:12:54;22.80;1.00
51595;DHT22;37677;53.254;6.594;2022-08-21T14:15:25;22.70;1.00
51595;DHT22;37677;53.254;6.594;2022-08-21T14:17:54;22.70;1.00
51595;DHT22;37677;53.254;6.594;2022-08-21T14:20:34;22.70;1.00
51595;DHT22;37677;53.254;6.594;2022-08-21T14:23:00;22.70;1.00
51595;DHT22;37677;53.254;6.594;2022-08-21T14:25:30;22.60;1.00
51595;DHT22;37677;53.254;6.594;2022-08-21T14:28:03;22.40;1.00
51595;DHT22;37677;53.254;6.594;2022-08-21T14:30:37;22.40;1.00
51595;DHT22;37677;53.254;6.594;2022-08-21T14:33:04;22.20;1.00
51595;DHT22;37677;53.254;6.594;2022-08-21T14:35:33;22.30;1.00
51595;DHT22;37677;53.254;6.594;2022-08-21T14:37:58;22.20;1.00
51595;DHT22;37677;53.254;6.594;2022-08-21T14:40:25;22.30;1.00
51595;DHT22;37677;53.254;6.594;2022-08-21T14:42:51;22.30;1.00
51595;DHT22;37677;53.254;6.594;2022-08-21T14:45:23;22.30;1.00
51595;DHT22;37677;53.254;6.594;2022-08-21T14:47:48;22.30;1.00
51595;DHT22;37677;53.254;6.594;2022-08-21T14:50:15;22.30;1.00
51595;DHT22;37677;53.254;6.594;2022-08-21T14:52:41;22.40;1.00
51595;DHT22;37677;53.254;6.594;2022-08-21T14:55:09;22.40;1.00
51595;DHT22;37677;53.254;6.594;2022-08-21T14:57:40;22.40;1.00
51595;DHT22;37677;53.254;6.594;2022-08-21T15:00:12;22.40;1.00
51595;DHT22;37677;53.254;6.594;2022-08-21T15:02:39;22.40;1.00
51595;DHT22;37677;53.254;6.594;2022-08-21T15:05:05;22.40;1.00
51595;DHT22;37677;53.254;6.594;2022-08-21T15:07:31;22.40;1.00
51595;DHT22;37677;53.254;6.594;2022-08-21T15:09:56;22.40;1.00
51595;DHT22;37677;53.254;6.594;2022-08-21T15:12:23;22.40;1.00
51595;DHT22;37677;53.254;6.594;2022-08-21T15:14:50;22.40;1.00
51595;DHT22;37677;53.254;6.594;2022-08-21T15:17:16;22.30;1.00
51595;DHT22;37677;53.254;6.594;2022-08-21T15:19:41;22.30;2.60
51595;DHT22;37677;53.254;6.594;2022-08-21T15:22:07;22.30;4.90
51595;DHT22;37677;53.254;6.594;2022-08-21T15:24:33;22.30;10.80
51595;DHT22;37677;53.254;6.594;2022-08-21T15:27:01;22.30;20.30
51595;DHT22;37677;53.254;6.594;2022-08-21T15:29:29;22.20;21.10
51595;DHT22;37677;53.254;6.594;2022-08-21T15:31:58;22.20;30.20
51595;DHT22;37677;53.254;6.594;2022-08-21T15:34:27;22.10;30.00
51595;DHT22;37677;53.254;6.594;2022-08-21T15:36:57;22.20;33.00
51595;DHT22;37677;53.254;6.594;2022-08-21T15:39:25;22.20;50.90
51595;DHT22;37677;53.254;6.594;2022-08-21T15:41:51;22.30;69.80
51595;DHT22;37677;53.254;6.594;2022-08-21T15:44:17;22.40;78.40
51595;DHT22;37677;53.254;6.594;2022-08-21T15:46:43;22.40;58.90
51595;DHT22;37677;53.254;6.594;2022-08-21T15:49:10;22.20;60.30
51595;DHT22;37677;53.254;6.594;2022-08-21T15:51:36;22.10;72.20
51595;DHT22;37677;53.254;6.594;2022-08-21T15:54:03;22.00;92.40
51595;DHT22;37677;53.254;6.594;2022-08-21T15:56:34;22.00;99.00
51595;DHT22;37677;53.254;6.594;2022-08-21T15:59:04;21.90;99.90
51595;DHT22;37677;53.254;6.594;2022-08-21T16:01:31;22.00;99.90
51595;DHT22;37677;53.254;6.594;2022-08-21T16:03:57;22.00;99.90
51595;DHT22;37677;53.254;6.594;2022-08-21T16:06:23;22.00;99.90
51595;DHT22;37677;53.254;6.594;2022-08-21T16:08:48;22.00;99.90
51595;DHT22;37677;53.254;6.594;2022-08-21T16:11:15;22.00;99.90
51595;DHT22;37677;53.254;6.594;2022-08-21T16:13:43;21.80;99.90
51595;DHT22;37677;53.254;6.594;2022-08-21T16:16:16;21.80;99.90
51595;DHT22;37677;53.254;6.594;2022-08-21T16:18:42;21.80;99.90
51595;DHT22;37677;53.254;6.594;2022-08-21T16:21:08;21.60;99.90
51595;DHT22;37677;53.254;6.594;2022-08-21T16:23:34;21.70;99.90
51595;DHT22;37677;53.254;6.594;2022-08-21T16:26:04;21.70;99.90
51595;DHT22;37677;53.254;6.594;2022-08-21T16:28:30;21.80;99.90
51595;DHT22;37677;53.254;6.594;2022-08-21T16:30:56;21.80;99.90
51595;DHT22;37677;53.254;6.594;2022-08-21T16:33:43;21.80;99.90
51595;DHT22;37677;53.254;6.594;2022-08-21T16:36:11;21.80;99.90
51595;DHT22;37677;53.254;6.594;2022-08-21T16:38:38;21.80;47.70
51595;DHT22;37677;53.254;6.594;2022-08-21T16:41:09;21.70;45.70
51595;DHT22;37677;53.254;6.594;2022-08-21T16:43:35;21.70;33.60
51595;DHT22;37677;53.254;6.594;2022-08-21T16:46:03;21.70;32.30
51595;DHT22;37677;53.254;6.594;2022-08-21T16:48:29;21.60;29.90
51595;DHT22;37677;53.254;6.594;2022-08-21T16:50:55;21.60;17.80
51595;DHT22;37677;53.254;6.594;2022-08-21T16:53:21;21.60;35.30
51595;DHT22;37677;53.254;6.594;2022-08-21T16:55:49;21.70;40.70
51595;DHT22;37677;53.254;6.594;2022-08-21T16:58:20;21.60;4.70
51595;DHT22;37677;53.254;6.594;2022-08-21T17:00:47;21.60;1.00
51595;DHT22;37677;53.254;6.594;2022-08-21T17:03:15;21.60;1.00
51595;DHT22;37677;53.254;6.594;2022-08-21T17:05:43;21.60;1.00
51595;DHT22;37677;53.254;6.594;2022-08-21T17:08:08;21.50;1.00
51595;DHT22;37677;53.254;6.594;2022-08-21T17:10:35;21.50;1.00